Ek-star — LAMT5 — position and weather

sailwx.info

Track history (hours):
 
Tides and Currents Weather Stations Pressure Air Temp Water Temp Dewpoint Dewpoint Depression Visibility Wind Speed Wind Dir Waves Ship Positions

Ek-star

Last reported at 2015-Sep-05 09:33 UTC. Time now 2015-Sep-05 10:21 UTC.
Position N 55°06' E 014°05'.

Length 135 m; draft 8.3 m.

Type: Ship (hazmat cat A). MMSI: 257433000.

Date/timePositionNaut miles runAvg speedWind from/ knotsBaromVisibWave heightAir tempDewpointWater temp
2015-Sep-05 09:33N 55°06' E 014°05'1312.7
2015-Sep-05 08:33N 55°16' E 014°19'1313.0
2015-Sep-05 07:33N 55°26' E 014°34'1313.0
2015-Sep-05 06:33N 55°33' E 014°54'1313.2
2015-Sep-05 05:33N 55°39' E 015°14'35413.0
2015-Sep-04 02:16N 59°38' E 023°23'912.6
2015-Sep-04 01:33N 59°41' E 023°40'2612.7
2015-Sep-03 23:31N 59°48' E 024°30'6412.7
2015-Sep-03 18:29N 60°01' E 026°34'8812.3
2015-Sep-03 11:20N 60°02' E 029°30'911.4
2015-Sep-03 10:33N 59°58' E 029°46'1111.5
2015-Sep-03 09:33N 59°54' E 030°07'4 3.4
2015-Sep-03 08:31N 59°52' E 030°13'0 0.0
2015-Sep-03 07:31N 59°52' E 030°13'0 0.0
2015-Sep-03 06:31N 59°52' E 030°13'0 0.0
2015-Sep-03 05:31N 59°52' E 030°13'0 0.0
2015-Sep-03 04:31N 59°52' E 030°13'0 0.0
2015-Sep-03 03:31N 59°52' E 030°13'0 0.0
2015-Sep-03 02:31N 59°52' E 030°13'0 0.0
2015-Sep-03 01:31N 59°52' E 030°13'0 0.0
2015-Sep-03 00:31N 59°52' E 030°13'0 0.0
2015-Sep-02 23:31N 59°52' E 030°13'0 0.0
2015-Sep-02 22:31N 59°52' E 030°13'0 0.0
2015-Sep-02 21:31N 59°52' E 030°13'0 0.0
2015-Sep-02 20:31N 59°52' E 030°13'0 0.0
2015-Sep-02 19:31N 59°52' E 030°13'0 0.0
2015-Sep-02 18:31N 59°52' E 030°13'0 0.0
2015-Sep-02 17:28N 59°52' E 030°13'0 0.0
2015-Sep-02 16:31N 59°52' E 030°13'0 0.0
2015-Sep-02 15:31N 59°52' E 030°13'0 0.0
2015-Sep-02 14:31N 59°52' E 030°13'0 0.0
2015-Sep-02 13:32N 59°52' E 030°13'0 0.0
2015-Sep-02 12:28N 59°52' E 030°13'0 0.0
2015-Sep-02 11:31N 59°52' E 030°13'0 0.0
2015-Sep-02 10:31N 59°52' E 030°13'0 0.0
2015-Sep-02 09:31N 59°52' E 030°13'0 0.0
2015-Sep-02 08:31N 59°52' E 030°13'0 0.0
2015-Sep-02 07:32N 59°52' E 030°13'0 0.0
2015-Sep-02 06:32N 59°52' E 030°13'0 0.0
2015-Sep-02 05:32N 59°52' E 030°13'0 0.0
2015-Sep-02 04:32N 59°52' E 030°13'0 0.3
2015-Sep-02 03:33N 59°52' E 030°13'9 9.0
2015-Sep-02 02:33N 59°56' E 029°57'19 0.5
2015-Aug-31 13:33N 60°02' E 029°21'5512.9
2015-Aug-31 09:15N 60°06' E 027°30'1213.5
2015-Aug-31 08:22N 59°60' E 027°10'1012.7
2015-Aug-31 07:33N 59°59' E 026°49'1313.2
2015-Aug-31 06:33N 59°57' E 026°23'1413.5
2015-Aug-31 05:33N 59°51' E 025°59'1313.4
2015-Aug-31 04:33N 59°45' E 025°34'17 0.8
2015-Aug-30 06:18N 59°57' E 026°00'10912.4
2015-Aug-29 21:31N 60°00' E 029°38'1010.5
2015-Aug-29 20:33N 59°56' E 029°57'9 8.3
2015-Aug-29 19:29N 59°52' E 030°13'0 0.4
2015-Aug-29 18:32N 59°52' E 030°13'0 0.0
2015-Aug-29 17:32N 59°52' E 030°13'0 0.0
2015-Aug-29 16:32N 59°52' E 030°13'0 0.0
2015-Aug-29 15:32N 59°52' E 030°13'0 0.0
2015-Aug-29 14:32N 59°52' E 030°13'0 0.0
2015-Aug-29 13:32N 59°52' E 030°13'0 0.0
2015-Aug-29 12:32N 59°52' E 030°13'0 0.0
2015-Aug-29 11:32N 59°52' E 030°13'0 0.0
2015-Aug-29 10:32N 59°52' E 030°13'0 0.0
2015-Aug-29 09:32N 59°52' E 030°13'0 0.0
2015-Aug-29 08:32N 59°52' E 030°13'0 0.0
2015-Aug-29 07:32N 59°52' E 030°13'0 0.0
2015-Aug-29 06:32N 59°52' E 030°13'0 0.0
2015-Aug-29 05:32N 59°52' E 030°13'0 0.0
2015-Aug-29 04:32N 59°52' E 030°13'0 0.0
2015-Aug-29 03:32N 59°52' E 030°13'0 0.0
2015-Aug-29 02:32N 59°52' E 030°13'0 0.0
2015-Aug-29 01:32N 59°52' E 030°13'0 0.0
2015-Aug-29 00:32N 59°52' E 030°13'0 0.0
2015-Aug-28 23:32N 59°52' E 030°13'0 0.0
2015-Aug-28 22:32N 59°52' E 030°13'0 0.0
2015-Aug-28 21:32N 59°52' E 030°13'0 0.0
2015-Aug-28 20:32N 59°52' E 030°13'0 0.0
2015-Aug-28 19:32N 59°52' E 030°13'0 0.0
2015-Aug-28 18:32N 59°52' E 030°13'0 0.0
2015-Aug-28 17:32N 59°52' E 030°13'0 0.0
2015-Aug-28 16:29N 59°52' E 030°13'0 0.0
2015-Aug-28 15:32N 59°52' E 030°13'0 0.0
2015-Aug-28 14:32N 59°52' E 030°13'0 0.0
2015-Aug-28 13:32N 59°52' E 030°13'0 0.0
2015-Aug-28 12:32N 59°52' E 030°13'0 0.0
2015-Aug-28 11:32N 59°52' E 030°13'0 0.0
2015-Aug-28 10:32N 59°52' E 030°13'0 0.0
2015-Aug-28 09:32N 59°52' E 030°13'0 0.0
2015-Aug-28 08:32N 59°52' E 030°13'0 0.0
2015-Aug-28 07:32N 59°52' E 030°13'0 0.0
2015-Aug-28 06:33N 59°52' E 030°13'0 0.0
2015-Aug-28 05:33N 59°52' E 030°13'1 0.6
2015-Aug-28 04:33N 59°52' E 030°12'8 7.7
2015-Aug-28 03:33N 59°56' E 029°59'1110.7
2015-Aug-28 02:33N 59°60' E 029°39'8 0.6
2015-Aug-27 12:28N 60°01' E 029°24'  
Track history (hours):
 
Tides and Currents Weather Stations Pressure Air Temp Water Temp Dewpoint Dewpoint Depression Visibility Wind Speed Wind Dir Waves Ship Positions

Ek-star

Last reported at 2015-Sep-05 09:33 UTC. Time now 2015-Sep-05 10:21 UTC.
Position N 55°06' E 014°05'.

Length 135 m; draft 8.3 m.

Type: Ship (hazmat cat A). MMSI: 257433000.

Date/timePositionNaut miles runAvg speedWind from/ knotsBaromVisibWave heightAir tempDewpointWater temp
2015-Sep-05 09:33N 55°06' E 014°05'1312.7
2015-Sep-05 08:33N 55°16' E 014°19'1313.0
2015-Sep-05 07:33N 55°26' E 014°34'1313.0
2015-Sep-05 06:33N 55°33' E 014°54'1313.2
2015-Sep-05 05:33N 55°39' E 015°14'35413.0
2015-Sep-04 02:16N 59°38' E 023°23'912.6
2015-Sep-04 01:33N 59°41' E 023°40'2612.7
2015-Sep-03 23:31N 59°48' E 024°30'6412.7
2015-Sep-03 18:29N 60°01' E 026°34'8812.3
2015-Sep-03 11:20N 60°02' E 029°30'911.4
2015-Sep-03 10:33N 59°58' E 029°46'1111.5
2015-Sep-03 09:33N 59°54' E 030°07'4 3.4
2015-Sep-03 08:31N 59°52' E 030°13'0 0.0
2015-Sep-03 07:31N 59°52' E 030°13'0 0.0
2015-Sep-03 06:31N 59°52' E 030°13'0 0.0
2015-Sep-03 05:31N 59°52' E 030°13'0 0.0
2015-Sep-03 04:31N 59°52' E 030°13'0 0.0
2015-Sep-03 03:31N 59°52' E 030°13'0 0.0
2015-Sep-03 02:31N 59°52' E 030°13'0 0.0
2015-Sep-03 01:31N 59°52' E 030°13'0 0.0
2015-Sep-03 00:31N 59°52' E 030°13'0 0.0
2015-Sep-02 23:31N 59°52' E 030°13'0 0.0
2015-Sep-02 22:31N 59°52' E 030°13'0 0.0
2015-Sep-02 21:31N 59°52' E 030°13'0 0.0
2015-Sep-02 20:31N 59°52' E 030°13'0 0.0
2015-Sep-02 19:31N 59°52' E 030°13'0 0.0
2015-Sep-02 18:31N 59°52' E 030°13'0 0.0
2015-Sep-02 17:28N 59°52' E 030°13'0 0.0
2015-Sep-02 16:31N 59°52' E 030°13'0 0.0
2015-Sep-02 15:31N 59°52' E 030°13'0 0.0
2015-Sep-02 14:31N 59°52' E 030°13'0 0.0
2015-Sep-02 13:32N 59°52' E 030°13'0 0.0
2015-Sep-02 12:28N 59°52' E 030°13'0 0.0
2015-Sep-02 11:31N 59°52' E 030°13'0 0.0
2015-Sep-02 10:31N 59°52' E 030°13'0 0.0
2015-Sep-02 09:31N 59°52' E 030°13'0 0.0
2015-Sep-02 08:31N 59°52' E 030°13'0 0.0
2015-Sep-02 07:32N 59°52' E 030°13'0 0.0
2015-Sep-02 06:32N 59°52' E 030°13'0 0.0
2015-Sep-02 05:32N 59°52' E 030°13'0 0.0
2015-Sep-02 04:32N 59°52' E 030°13'0 0.3
2015-Sep-02 03:33N 59°52' E 030°13'9 9.0
2015-Sep-02 02:33N 59°56' E 029°57'19 0.5
2015-Aug-31 13:33N 60°02' E 029°21'5512.9
2015-Aug-31 09:15N 60°06' E 027°30'1213.5
2015-Aug-31 08:22N 59°60' E 027°10'1012.7
2015-Aug-31 07:33N 59°59' E 026°49'1313.2
2015-Aug-31 06:33N 59°57' E 026°23'1413.5
2015-Aug-31 05:33N 59°51' E 025°59'1313.4
2015-Aug-31 04:33N 59°45' E 025°34'17 0.8
2015-Aug-30 06:18N 59°57' E 026°00'10912.4
2015-Aug-29 21:31N 60°00' E 029°38'1010.5
2015-Aug-29 20:33N 59°56' E 029°57'9 8.3
2015-Aug-29 19:29N 59°52' E 030°13'0 0.4
2015-Aug-29 18:32N 59°52' E 030°13'0 0.0
2015-Aug-29 17:32N 59°52' E 030°13'0 0.0
2015-Aug-29 16:32N 59°52' E 030°13'0 0.0
2015-Aug-29 15:32N 59°52' E 030°13'0 0.0
2015-Aug-29 14:32N 59°52' E 030°13'0 0.0
2015-Aug-29 13:32N 59°52' E 030°13'0 0.0
2015-Aug-29 12:32N 59°52' E 030°13'0 0.0
2015-Aug-29 11:32N 59°52' E 030°13'0 0.0
2015-Aug-29 10:32N 59°52' E 030°13'0 0.0
2015-Aug-29 09:32N 59°52' E 030°13'0 0.0
2015-Aug-29 08:32N 59°52' E 030°13'0 0.0
2015-Aug-29 07:32N 59°52' E 030°13'0 0.0
2015-Aug-29 06:32N 59°52' E 030°13'0 0.0
2015-Aug-29 05:32N 59°52' E 030°13'0 0.0
2015-Aug-29 04:32N 59°52' E 030°13'0 0.0
2015-Aug-29 03:32N 59°52' E 030°13'0 0.0
2015-Aug-29 02:32N 59°52' E 030°13'0 0.0
2015-Aug-29 01:32N 59°52' E 030°13'0 0.0
2015-Aug-29 00:32N 59°52' E 030°13'0 0.0
2015-Aug-28 23:32N 59°52' E 030°13'0 0.0
2015-Aug-28 22:32N 59°52' E 030°13'0 0.0
2015-Aug-28 21:32N 59°52' E 030°13'0 0.0
2015-Aug-28 20:32N 59°52' E 030°13'0 0.0
2015-Aug-28 19:32N 59°52' E 030°13'0 0.0
2015-Aug-28 18:32N 59°52' E 030°13'0 0.0
2015-Aug-28 17:32N 59°52' E 030°13'0 0.0
2015-Aug-28 16:29N 59°52' E 030°13'0 0.0
2015-Aug-28 15:32N 59°52' E 030°13'0 0.0
2015-Aug-28 14:32N 59°52' E 030°13'0 0.0
2015-Aug-28 13:32N 59°52' E 030°13'0 0.0
2015-Aug-28 12:32N 59°52' E 030°13'0 0.0
2015-Aug-28 11:32N 59°52' E 030°13'0 0.0
2015-Aug-28 10:32N 59°52' E 030°13'0 0.0
2015-Aug-28 09:32N 59°52' E 030°13'0 0.0
2015-Aug-28 08:32N 59°52' E 030°13'0 0.0
2015-Aug-28 07:32N 59°52' E 030°13'0 0.0
2015-Aug-28 06:33N 59°52' E 030°13'0 0.0
2015-Aug-28 05:33N 59°52' E 030°13'1 0.6
2015-Aug-28 04:33N 59°52' E 030°12'8 7.7
2015-Aug-28 03:33N 59°56' E 029°59'1110.7
2015-Aug-28 02:33N 59°60' E 029°39'8 0.6
2015-Aug-27 12:28N 60°01' E 029°24'  

Dump ship's entire track history